sensor_id;sensor_type;location;lat;lon;timestamp;temperature;humidity
64858;SHT30;51335;51.148;6.950;2024-01-15T00:00:07;1.05;98.89
64858;SHT30;51335;51.148;6.950;2024-01-15T00:00:38;1.06;98.86
64858;SHT30;51335;51.148;6.950;2024-01-15T00:01:08;1.08;98.92
64858;SHT30;51335;51.148;6.950;2024-01-15T00:01:44;1.11;98.95
64858;SHT30;51335;51.148;6.950;2024-01-15T00:02:15;1.05;99.01
64858;SHT30;51335;51.148;6.950;2024-01-15T00:02:47;1.01;99.13
64858;SHT30;51335;51.148;6.950;2024-01-15T00:03:17;1.08;99.26
64858;SHT30;51335;51.148;6.950;2024-01-15T00:03:47;1.02;99.35
64858;SHT30;51335;51.148;6.950;2024-01-15T00:04:17;1.01;99.53
64858;SHT30;51335;51.148;6.950;2024-01-15T00:04:48;1.01;99.66
64858;SHT30;51335;51.148;6.950;2024-01-15T00:05:18;1.01;99.70
64858;SHT30;51335;51.148;6.950;2024-01-15T00:05:48;0.96;99.86
64858;SHT30;51335;51.148;6.950;2024-01-15T00:06:18;0.89;99.99
64858;SHT30;51335;51.148;6.950;2024-01-15T00:06:49;0.91;99.99
64858;SHT30;51335;51.148;6.950;2024-01-15T00:07:20;0.96;99.99
64858;SHT30;51335;51.148;6.950;2024-01-15T00:07:50;0.96;99.99
64858;SHT30;51335;51.148;6.950;2024-01-15T00:08:20;0.93;99.99
64858;SHT30;51335;51.148;6.950;2024-01-15T00:08:50;0.93;99.99
64858;SHT30;51335;51.148;6.950;2024-01-15T00:09:21;0.93;99.99
64858;SHT30;51335;51.148;6.950;2024-01-15T00:09:51;0.95;99.99
64858;SHT30;51335;51.148;6.950;2024-01-15T00:10:21;0.93;99.99
64858;SHT30;51335;51.148;6.950;2024-01-15T00:10:51;0.92;99.99
64858;SHT30;51335;51.148;6.950;2024-01-15T00:11:22;0.99;99.99
64858;SHT30;51335;51.148;6.950;2024-01-15T00:11:52;0.93;99.99
64858;SHT30;51335;51.148;6.950;2024-01-15T00:12:22;0.92;99.99
64858;SHT30;51335;51.148;6.950;2024-01-15T00:12:52;0.91;99.99
64858;SHT30;51335;51.148;6.950;2024-01-15T00:13:23;0.96;99.99
64858;SHT30;51335;51.148;6.950;2024-01-15T00:13:53;0.91;99.99
64858;SHT30;51335;51.148;6.950;2024-01-15T00:14:23;0.91;99.99
64858;SHT30;51335;51.148;6.950;2024-01-15T00:14:54;0.98;99.99
64858;SHT30;51335;51.148;6.950;2024-01-15T00:15:24;0.89;99.99
64858;SHT30;51335;51.148;6.950;2024-01-15T00:15:54;0.92;99.99
64858;SHT30;51335;51.148;6.950;2024-01-15T00:16:24;0.93;99.99
64858;SHT30;51335;51.148;6.950;2024-01-15T00:16:55;0.92;99.99
64858;SHT30;51335;51.148;6.950;2024-01-15T00:17:25;0.88;99.99
64858;SHT30;51335;51.148;6.950;2024-01-15T00:17:55;0.85;99.99
64858;SHT30;51335;51.148;6.950;2024-01-15T00:18:26;0.80;99.99
64858;SHT30;51335;51.148;6.950;2024-01-15T00:18:56;0.80;99.99
64858;SHT30;51335;51.148;6.950;2024-01-15T00:19:26;0.80;99.99
64858;SHT30;51335;51.148;6.950;2024-01-15T00:19:56;0.80;99.99
64858;SHT30;51335;51.148;6.950;2024-01-15T00:20:27;0.78;99.99
64858;SHT30;51335;51.148;6.950;2024-01-15T00:20:57;0.80;99.99
64858;SHT30;51335;51.148;6.950;2024-01-15T00:21:27;0.75;99.99
64858;SHT30;51335;51.148;6.950;2024-01-15T00:21:58;0.75;99.99
64858;SHT30;51335;51.148;6.950;2024-01-15T00:22:28;0.77;99.99
64858;SHT30;51335;51.148;6.950;2024-01-15T00:22:58;0.81;99.99
64858;SHT30;51335;51.148;6.950;2024-01-15T00:23:28;0.81;99.99
64858;SHT30;51335;51.148;6.950;2024-01-15T00:23:59;0.78;99.99
64858;SHT30;51335;51.148;6.950;2024-01-15T00:24:29;0.77;99.99
64858;SHT30;51335;51.148;6.950;2024-01-15T00:24:59;0.80;99.99
64858;SHT30;51335;51.148;6.950;2024-01-15T00:25:30;0.82;99.99
64858;SHT30;51335;51.148;6.950;2024-01-15T00:26:00;0.84;99.99
64858;SHT30;51335;51.148;6.950;2024-01-15T00:26:30;0.77;99.99
64858;SHT30;51335;51.148;6.950;2024-01-15T00:27:00;0.75;99.99
64858;SHT30;51335;51.148;6.950;2024-01-15T00:27:31;0.72;99.99
64858;SHT30;51335;51.148;6.950;2024-01-15T00:28:01;0.77;99.99
64858;SHT30;51335;51.148;6.950;2024-01-15T00:28:31;0.68;99.99
64858;SHT30;51335;51.148;6.950;2024-01-15T00:29:02;0.68;99.99
64858;SHT30;51335;51.148;6.950;2024-01-15T00:29:32;0.71;99.99
64858;SHT30;51335;51.148;6.950;2024-01-15T00:30:03;0.75;99.99
64858;SHT30;51335;51.148;6.950;2024-01-15T00:30:33;0.85;99.99
64858;SHT30;51335;51.148;6.950;2024-01-15T00:31:06;0.84;99.99
64858;SHT30;51335;51.148;6.950;2024-01-15T00:31:37;0.85;99.99
64858;SHT30;51335;51.148;6.950;2024-01-15T00:32:07;0.88;99.99
64858;SHT30;51335;51.148;6.950;2024-01-15T00:32:37;0.78;99.99
64858;SHT30;51335;51.148;6.950;2024-01-15T00:33:07;0.80;99.99
64858;SHT30;51335;51.148;6.950;2024-01-15T00:33:38;0.80;99.99
64858;SHT30;51335;51.148;6.950;2024-01-15T00:34:08;0.82;99.99
64858;SHT30;51335;51.148;6.950;2024-01-15T00:34:38;0.78;99.99
64858;SHT30;51335;51.148;6.950;2024-01-15T00:35:09;0.81;99.99
64858;SHT30;51335;51.148;6.950;2024-01-15T00:35:39;0.82;99.99
64858;SHT30;51335;51.148;6.950;2024-01-15T00:36:09;0.77;99.99
64858;SHT30;51335;51.148;6.950;2024-01-15T00:36:40;0.72;99.99
64858;SHT30;51335;51.148;6.950;2024-01-15T00:37:10;0.74;99.99
64858;SHT30;51335;51.148;6.950;2024-01-15T00:37:40;0.71;99.99
64858;SHT30;51335;51.148;6.950;2024-01-15T00:38:10;0.65;99.99
64858;SHT30;51335;51.148;6.950;2024-01-15T00:38:41;0.67;99.99
64858;SHT30;51335;51.148;6.950;2024-01-15T00:39:11;0.65;99.99
64858;SHT30;51335;51.148;6.950;2024-01-15T00:39:41;0.61;99.99
64858;SHT30;51335;51.148;6.950;2024-01-15T00:40:12;0.68;99.99
64858;SHT30;51335;51.148;6.950;2024-01-15T00:40:42;0.61;99.99
64858;SHT30;51335;51.148;6.950;2024-01-15T00:41:12;0.68;99.99
64858;SHT30;51335;51.148;6.950;2024-01-15T00:41:43;0.70;99.99
64858;SHT30;51335;51.148;6.950;2024-01-15T00:42:13;0.68;99.99
64858;SHT30;51335;51.148;6.950;2024-01-15T00:42:43;0.68;99.99
64858;SHT30;51335;51.148;6.950;2024-01-15T00:43:13;0.67;99.99
64858;SHT30;51335;51.148;6.950;2024-01-15T00:43:45;0.68;99.99
64858;SHT30;51335;51.148;6.950;2024-01-15T00:44:15;0.65;99.99
64858;SHT30;51335;51.148;6.950;2024-01-15T00:44:45;0.67;99.99
64858;SHT30;51335;51.148;6.950;2024-01-15T00:45:16;0.67;99.99
64858;SHT30;51335;51.148;6.950;2024-01-15T00:45:46;0.68;99.99
64858;SHT30;51335;51.148;6.950;2024-01-15T00:46:16;0.71;99.99
64858;SHT30;51335;51.148;6.950;2024-01-15T00:46:46;0.74;99.99
64858;SHT30;51335;51.148;6.950;2024-01-15T00:47:18;0.71;99.99
64858;SHT30;51335;51.148;6.950;2024-01-15T00:47:48;0.72;99.99
64858;SHT30;51335;51.148;6.950;2024-01-15T00:48:19;0.74;99.99
64858;SHT30;51335;51.148;6.950;2024-01-15T00:48:49;0.77;99.99
64858;SHT30;51335;51.148;6.950;2024-01-15T00:49:19;0.77;99.99
64858;SHT30;51335;51.148;6.950;2024-01-15T00:49:49;0.74;99.99
64858;SHT30;51335;51.148;6.950;2024-01-15T00:50:20;0.78;99.99
64858;SHT30;51335;51.148;6.950;2024-01-15T00:50:50;0.75;99.99
64858;SHT30;51335;51.148;6.950;2024-01-15T00:51:20;0.74;99.99
64858;SHT30;51335;51.148;6.950;2024-01-15T00:51:50;0.77;99.99
64858;SHT30;51335;51.148;6.950;2024-01-15T00:52:21;0.77;99.99
64858;SHT30;51335;51.148;6.950;2024-01-15T00:52:51;0.80;99.99
64858;SHT30;51335;51.148;6.950;2024-01-15T00:53:21;0.75;99.99
64858;SHT30;51335;51.148;6.950;2024-01-15T00:53:51;0.71;99.99
64858;SHT30;51335;51.148;6.950;2024-01-15T00:54:22;0.77;99.99
64858;SHT30;51335;51.148;6.950;2024-01-15T00:54:52;0.82;99.99
64858;SHT30;51335;51.148;6.950;2024-01-15T00:55:22;0.78;99.99
64858;SHT30;51335;51.148;6.950;2024-01-15T00:55:52;0.77;99.99
64858;SHT30;51335;51.148;6.950;2024-01-15T00:56:23;0.81;99.99
64858;SHT30;51335;51.148;6.950;2024-01-15T00:56:53;0.84;99.99
64858;SHT30;51335;51.148;6.950;2024-01-15T00:57:23;0.87;99.99
64858;SHT30;51335;51.148;6.950;2024-01-15T00:57:53;0.85;99.99
64858;SHT30;51335;51.148;6.950;2024-01-15T00:58:24;0.87;99.99
64858;SHT30;51335;51.148;6.950;2024-01-15T00:58:54;0.89;99.99
64858;SHT30;51335;51.148;6.950;2024-01-15T00:59:24;0.89;99.99
64858;SHT30;51335;51.148;6.950;2024-01-15T00:59:54;0.93;99.99
64858;SHT30;51335;51.148;6.950;2024-01-15T01:00:25;0.88;99.99
64858;SHT30;51335;51.148;6.950;2024-01-15T01:00:55;0.87;99.99
64858;SHT30;51335;51.148;6.950;2024-01-15T01:01:25;0.88;99.99
64858;SHT30;51335;51.148;6.950;2024-01-15T01:01:55;0.89;99.99
64858;SHT30;51335;51.148;6.950;2024-01-15T01:02:26;0.93;99.99
64858;SHT30;51335;51.148;6.950;2024-01-15T01:02:56;0.95;99.99
64858;SHT30;51335;51.148;6.950;2024-01-15T01:03:26;0.95;99.99
64858;SHT30;51335;51.148;6.950;2024-01-15T01:03:57;0.99;99.99
64858;SHT30;51335;51.148;6.950;2024-01-15T01:04:27;0.99;99.99
64858;SHT30;51335;51.148;6.950;2024-01-15T01:04:57;0.96;99.99
64858;SHT30;51335;51.148;6.950;2024-01-15T01:05:27;0.99;99.99
64858;SHT30;51335;51.148;6.950;2024-01-15T01:05:58;0.98;99.99
64858;SHT30;51335;51.148;6.950;2024-01-15T01:06:28;0.96;99.99
64858;SHT30;51335;51.148;6.950;2024-01-15T01:06:58;0.89;99.99
64858;SHT30;51335;51.148;6.950;2024-01-15T01:07:28;0.88;99.99
64858;SHT30;51335;51.148;6.950;2024-01-15T01:07:59;0.88;99.99
64858;SHT30;51335;51.148;6.950;2024-01-15T01:08:29;0.85;99.99
64858;SHT30;51335;51.148;6.950;2024-01-15T01:08:59;0.85;99.99
64858;SHT30;51335;51.148;6.950;2024-01-15T01:09:30;0.91;99.99
64858;SHT30;51335;51.148;6.950;2024-01-15T01:10:00;0.91;99.99
64858;SHT30;51335;51.148;6.950;2024-01-15T01:10:30;0.96;99.99
64858;SHT30;51335;51.148;6.950;2024-01-15T01:11:00;0.93;99.99
64858;SHT30;51335;51.148;6.950;2024-01-15T01:11:31;0.92;99.99
64858;SHT30;51335;51.148;6.950;2024-01-15T01:12:01;0.88;99.99
64858;SHT30;51335;51.148;6.950;2024-01-15T01:12:31;0.89;99.99
64858;SHT30;51335;51.148;6.950;2024-01-15T01:13:02;0.88;99.99
64858;SHT30;51335;51.148;6.950;2024-01-15T01:13:32;0.84;99.99
64858;SHT30;51335;51.148;6.950;2024-01-15T01:14:03;0.80;99.99
64858;SHT30;51335;51.148;6.950;2024-01-15T01:14:33;0.78;99.99
64858;SHT30;51335;51.148;6.950;2024-01-15T01:15:04;0.74;99.99
64858;SHT30;51335;51.148;6.950;2024-01-15T01:15:34;0.80;99.99
64858;SHT30;51335;51.148;6.950;2024-01-15T01:16:05;0.80;99.99
64858;SHT30;51335;51.148;6.950;2024-01-15T01:16:35;0.82;99.99
64858;SHT30;51335;51.148;6.950;2024-01-15T01:17:05;0.82;99.99
64858;SHT30;51335;51.148;6.950;2024-01-15T01:17:36;0.85;99.99
64858;SHT30;51335;51.148;6.950;2024-01-15T01:18:06;0.77;99.99
64858;SHT30;51335;51.148;6.950;2024-01-15T01:18:36;0.82;99.99
64858;SHT30;51335;51.148;6.950;2024-01-15T01:19:07;0.80;99.99
64858;SHT30;51335;51.148;6.950;2024-01-15T01:19:37;0.77;99.99
64858;SHT30;51335;51.148;6.950;2024-01-15T01:20:07;0.82;99.99
64858;SHT30;51335;51.148;6.950;2024-01-15T01:20:38;0.78;99.99
64858;SHT30;51335;51.148;6.950;2024-01-15T01:21:08;0.81;99.99
64858;SHT30;51335;51.148;6.950;2024-01-15T01:21:38;0.84;99.99
64858;SHT30;51335;51.148;6.950;2024-01-15T01:22:09;0.80;99.99
64858;SHT30;51335;51.148;6.950;2024-01-15T01:22:39;0.85;99.99
64858;SHT30;51335;51.148;6.950;2024-01-15T01:23:09;0.88;99.99
64858;SHT30;51335;51.148;6.950;2024-01-15T01:23:39;0.89;99.99
64858;SHT30;51335;51.148;6.950;2024-01-15T01:24:10;0.91;99.99
64858;SHT30;51335;51.148;6.950;2024-01-15T01:24:40;0.91;99.99
64858;SHT30;51335;51.148;6.950;2024-01-15T01:25:10;0.95;99.99
64858;SHT30;51335;51.148;6.950;2024-01-15T01:25:40;0.96;99.99
64858;SHT30;51335;51.148;6.950;2024-01-15T01:26:15;0.89;99.99
64858;SHT30;51335;51.148;6.950;2024-01-15T01:26:45;0.93;99.99
64858;SHT30;51335;51.148;6.950;2024-01-15T01:27:16;0.93;99.99
64858;SHT30;51335;51.148;6.950;2024-01-15T01:27:46;0.96;99.99
64858;SHT30;51335;51.148;6.950;2024-01-15T01:28:16;0.93;99.99
64858;SHT30;51335;51.148;6.950;2024-01-15T01:28:46;0.93;99.99
64858;SHT30;51335;51.148;6.950;2024-01-15T01:29:17;0.95;99.99
64858;SHT30;51335;51.148;6.950;2024-01-15T01:29:47;0.93;99.99
64858;SHT30;51335;51.148;6.950;2024-01-15T01:30:17;0.95;99.99
64858;SHT30;51335;51.148;6.950;2024-01-15T01:30:48;0.99;99.99
64858;SHT30;51335;51.148;6.950;2024-01-15T01:31:18;0.98;99.99
64858;SHT30;51335;51.148;6.950;2024-01-15T01:31:48;1.01;99.99
64858;SHT30;51335;51.148;6.950;2024-01-15T01:32:19;1.02;99.99
64858;SHT30;51335;51.148;6.950;2024-01-15T01:32:49;0.98;99.99
64858;SHT30;51335;51.148;6.950;2024-01-15T01:33:19;1.01;99.99
64858;SHT30;51335;51.148;6.950;2024-01-15T01:33:50;1.05;99.99
64858;SHT30;51335;51.148;6.950;2024-01-15T01:34:20;1.02;99.99
64858;SHT30;51335;51.148;6.950;2024-01-15T01:34:50;1.05;99.99
64858;SHT30;51335;51.148;6.950;2024-01-15T01:35:21;1.03;99.99
64858;SHT30;51335;51.148;6.950;2024-01-15T01:35:51;0.99;99.99
64858;SHT30;51335;51.148;6.950;2024-01-15T01:36:21;1.01;99.99
64858;SHT30;51335;51.148;6.950;2024-01-15T01:36:51;1.06;99.99
64858;SHT30;51335;51.148;6.950;2024-01-15T01:37:22;1.03;99.99
64858;SHT30;51335;51.148;6.950;2024-01-15T01:37:52;0.99;99.99
64858;SHT30;51335;51.148;6.950;2024-01-15T01:38:22;0.96;99.99
64858;SHT30;51335;51.148;6.950;2024-01-15T01:38:52;0.92;99.99
64858;SHT30;51335;51.148;6.950;2024-01-15T01:39:23;0.88;99.99
64858;SHT30;51335;51.148;6.950;2024-01-15T01:39:53;0.89;99.99
64858;SHT30;51335;51.148;6.950;2024-01-15T01:40:23;0.89;99.99
64858;SHT30;51335;51.148;6.950;2024-01-15T01:40:53;0.91;99.99
64858;SHT30;51335;51.148;6.950;2024-01-15T01:41:24;0.93;99.99
64858;SHT30;51335;51.148;6.950;2024-01-15T01:41:54;0.93;99.99
64858;SHT30;51335;51.148;6.950;2024-01-15T01:42:24;0.92;99.99
64858;SHT30;51335;51.148;6.950;2024-01-15T01:42:54;0.89;99.99
64858;SHT30;51335;51.148;6.950;2024-01-15T01:43:25;0.89;99.99
64858;SHT30;51335;51.148;6.950;2024-01-15T01:43:55;0.87;99.99
64858;SHT30;51335;51.148;6.950;2024-01-15T01:44:25;0.85;99.99
64858;SHT30;51335;51.148;6.950;2024-01-15T01:44:55;0.87;99.99
64858;SHT30;51335;51.148;6.950;2024-01-15T01:45:25;0.88;99.99
64858;SHT30;51335;51.148;6.950;2024-01-15T01:45:57;0.92;99.99
64858;SHT30;51335;51.148;6.950;2024-01-15T01:46:28;0.87;99.99
64858;SHT30;51335;51.148;6.950;2024-01-15T01:46:59;0.89;99.99
64858;SHT30;51335;51.148;6.950;2024-01-15T01:47:29;0.89;99.99
64858;SHT30;51335;51.148;6.950;2024-01-15T01:48:01;0.92;99.99
64858;SHT30;51335;51.148;6.950;2024-01-15T01:48:31;0.96;99.99
64858;SHT30;51335;51.148;6.950;2024-01-15T01:49:02;0.95;99.99
64858;SHT30;51335;51.148;6.950;2024-01-15T01:49:32;0.98;99.99
64858;SHT30;51335;51.148;6.950;2024-01-15T01:50:03;0.93;99.99
64858;SHT30;51335;51.148;6.950;2024-01-15T01:50:34;0.96;99.99
64858;SHT30;51335;51.148;6.950;2024-01-15T01:51:04;0.98;99.99
64858;SHT30;51335;51.148;6.950;2024-01-15T01:51:35;1.02;99.99
64858;SHT30;51335;51.148;6.950;2024-01-15T01:52:06;0.98;99.99
64858;SHT30;51335;51.148;6.950;2024-01-15T01:52:37;1.01;99.99
64858;SHT30;51335;51.148;6.950;2024-01-15T01:53:07;1.02;99.99
64858;SHT30;51335;51.148;6.950;2024-01-15T01:53:38;0.98;99.99
64858;SHT30;51335;51.148;6.950;2024-01-15T01:54:08;0.99;99.99
64858;SHT30;51335;51.148;6.950;2024-01-15T01:54:40;0.96;99.99
64858;SHT30;51335;51.148;6.950;2024-01-15T01:55:12;0.95;99.99
64858;SHT30;51335;51.148;6.950;2024-01-15T01:55:43;0.95;99.99
64858;SHT30;51335;51.148;6.950;2024-01-15T01:56:13;1.02;99.99
64858;SHT30;51335;51.148;6.950;2024-01-15T01:56:45;1.03;99.99
64858;SHT30;51335;51.148;6.950;2024-01-15T01:57:16;0.96;99.99
64858;SHT30;51335;51.148;6.950;2024-01-15T01:57:48;0.89;99.99
64858;SHT30;51335;51.148;6.950;2024-01-15T01:58:19;0.89;99.99
64858;SHT30;51335;51.148;6.950;2024-01-15T01:58:49;0.88;99.99
64858;SHT30;51335;51.148;6.950;2024-01-15T01:59:20;0.91;99.99
64858;SHT30;51335;51.148;6.950;2024-01-15T01:59:50;0.91;99.99
64858;SHT30;51335;51.148;6.950;2024-01-15T02:00:21;0.91;99.99
64858;SHT30;51335;51.148;6.950;2024-01-15T02:00:51;0.91;99.99
64858;SHT30;51335;51.148;6.950;2024-01-15T02:01:21;0.95;99.99
64858;SHT30;51335;51.148;6.950;2024-01-15T02:01:53;1.03;99.99
64858;SHT30;51335;51.148;6.950;2024-01-15T02:02:24;1.05;99.99
64858;SHT30;51335;51.148;6.950;2024-01-15T02:02:54;1.01;99.99
64858;SHT30;51335;51.148;6.950;2024-01-15T02:03:27;0.98;99.99
64858;SHT30;51335;51.148;6.950;2024-01-15T02:03:57;1.01;99.99
64858;SHT30;51335;51.148;6.950;2024-01-15T02:04:28;1.01;99.99
64858;SHT30;51335;51.148;6.950;2024-01-15T02:04:58;0.99;99.99
64858;SHT30;51335;51.148;6.950;2024-01-15T02:05:28;1.01;99.99
64858;SHT30;51335;51.148;6.950;2024-01-15T02:06:00;0.95;99.99
64858;SHT30;51335;51.148;6.950;2024-01-15T02:06:30;0.92;99.99
64858;SHT30;51335;51.148;6.950;2024-01-15T02:07:00;0.93;99.99
64858;SHT30;51335;51.148;6.950;2024-01-15T02:07:31;0.98;99.99
64858;SHT30;51335;51.148;6.950;2024-01-15T02:08:01;1.05;99.99
64858;SHT30;51335;51.148;6.950;2024-01-15T02:08:32;1.02;99.99
64858;SHT30;51335;51.148;6.950;2024-01-15T02:09:03;1.05;99.99
64858;SHT30;51335;51.148;6.950;2024-01-15T02:09:33;1.02;99.99
64858;SHT30;51335;51.148;6.950;2024-01-15T02:10:04;1.02;99.99
64858;SHT30;51335;51.148;6.950;2024-01-15T02:10:34;1.02;99.99
64858;SHT30;51335;51.148;6.950;2024-01-15T02:11:05;1.01;99.99
64858;SHT30;51335;51.148;6.950;2024-01-15T02:11:36;1.05;99.99
64858;SHT30;51335;51.148;6.950;2024-01-15T02:12:07;1.05;99.99
64858;SHT30;51335;51.148;6.950;2024-01-15T02:12:37;1.02;99.99
64858;SHT30;51335;51.148;6.950;2024-01-15T02:13:07;1.02;99.99
64858;SHT30;51335;51.148;6.950;2024-01-15T02:13:38;1.03;99.99
64858;SHT30;51335;51.148;6.950;2024-01-15T02:14:09;1.02;99.99
64858;SHT30;51335;51.148;6.950;2024-01-15T02:14:40;1.06;99.99
64858;SHT30;51335;51.148;6.950;2024-01-15T02:15:10;1.08;99.99
64858;SHT30;51335;51.148;6.950;2024-01-15T02:15:40;1.11;99.99
64858;SHT30;51335;51.148;6.950;2024-01-15T02:16:11;1.13;99.99
64858;SHT30;51335;51.148;6.950;2024-01-15T02:16:41;1.16;99.99
64858;SHT30;51335;51.148;6.950;2024-01-15T02:17:11;1.20;99.99
64858;SHT30;51335;51.148;6.950;2024-01-15T02:18:03;1.22;99.99
64858;SHT30;51335;51.148;6.950;2024-01-15T02:18:43;1.15;99.99
64858;SHT30;51335;51.148;6.950;2024-01-15T02:19:17;1.12;99.99
64858;SHT30;51335;51.148;6.950;2024-01-15T02:19:47;1.16;99.99
64858;SHT30;51335;51.148;6.950;2024-01-15T02:20:18;1.19;99.99
64858;SHT30;51335;51.148;6.950;2024-01-15T02:20:48;1.20;99.99
64858;SHT30;51335;51.148;6.950;2024-01-15T02:21:18;1.20;99.99
64858;SHT30;51335;51.148;6.950;2024-01-15T02:21:49;1.18;99.99
64858;SHT30;51335;51.148;6.950;2024-01-15T02:22:19;1.20;99.99
64858;SHT30;51335;51.148;6.950;2024-01-15T02:22:49;1.19;99.99
64858;SHT30;51335;51.148;6.950;2024-01-15T02:23:19;1.12;99.99
64858;SHT30;51335;51.148;6.950;2024-01-15T02:23:50;1.11;99.99
64858;SHT30;51335;51.148;6.950;2024-01-15T02:24:20;1.11;99.99
64858;SHT30;51335;51.148;6.950;2024-01-15T02:24:50;1.11;99.99
64858;SHT30;51335;51.148;6.950;2024-01-15T02:25:20;1.08;99.99
64858;SHT30;51335;51.148;6.950;2024-01-15T02:25:51;1.11;99.99
64858;SHT30;51335;51.148;6.950;2024-01-15T02:26:21;1.09;99.99
64858;SHT30;51335;51.148;6.950;2024-01-15T02:26:52;1.12;99.99
64858;SHT30;51335;51.148;6.950;2024-01-15T02:27:22;1.12;99.99
64858;SHT30;51335;51.148;6.950;2024-01-15T02:27:53;1.09;99.99
64858;SHT30;51335;51.148;6.950;2024-01-15T02:28:23;1.12;99.99
64858;SHT30;51335;51.148;6.950;2024-01-15T02:28:54;1.08;99.99
64858;SHT30;51335;51.148;6.950;2024-01-15T02:29:24;1.08;99.99
64858;SHT30;51335;51.148;6.950;2024-01-15T02:29:54;1.09;99.99
64858;SHT30;51335;51.148;6.950;2024-01-15T02:30:25;1.08;99.99
64858;SHT30;51335;51.148;6.950;2024-01-15T02:30:56;1.06;99.99
64858;SHT30;51335;51.148;6.950;2024-01-15T02:31:26;1.09;99.99
64858;SHT30;51335;51.148;6.950;2024-01-15T02:31:57;1.02;99.99
64858;SHT30;51335;51.148;6.950;2024-01-15T02:32:27;1.05;99.99
64858;SHT30;51335;51.148;6.950;2024-01-15T02:32:57;1.08;99.99
64858;SHT30;51335;51.148;6.950;2024-01-15T02:33:27;1.11;99.99
64858;SHT30;51335;51.148;6.950;2024-01-15T02:33:58;1.15;99.99
64858;SHT30;51335;51.148;6.950;2024-01-15T02:34:31;1.09;99.99
64858;SHT30;51335;51.148;6.950;2024-01-15T02:35:02;1.09;99.99
64858;SHT30;51335;51.148;6.950;2024-01-15T02:35:32;1.06;99.99
64858;SHT30;51335;51.148;6.950;2024-01-15T02:36:02;1.06;99.99
64858;SHT30;51335;51.148;6.950;2024-01-15T02:36:33;1.11;99.99
64858;SHT30;51335;51.148;6.950;2024-01-15T02:37:03;1.12;99.99
64858;SHT30;51335;51.148;6.950;2024-01-15T02:37:34;1.12;99.99
64858;SHT30;51335;51.148;6.950;2024-01-15T02:38:05;1.13;99.99
64858;SHT30;51335;51.148;6.950;2024-01-15T02:38:35;1.09;99.99
64858;SHT30;51335;51.148;6.950;2024-01-15T02:39:05;1.06;99.99
64858;SHT30;51335;51.148;6.950;2024-01-15T02:39:36;1.05;99.99
64858;SHT30;51335;51.148;6.950;2024-01-15T02:40:06;1.06;99.99
64858;SHT30;51335;51.148;6.950;2024-01-15T02:40:38;1.05;99.99
64858;SHT30;51335;51.148;6.950;2024-01-15T02:41:08;1.13;99.99
64858;SHT30;51335;51.148;6.950;2024-01-15T02:41:39;1.15;99.99
64858;SHT30;51335;51.148;6.950;2024-01-15T02:42:09;1.13;99.99
64858;SHT30;51335;51.148;6.950;2024-01-15T02:42:39;1.15;99.99
64858;SHT30;51335;51.148;6.950;2024-01-15T02:43:09;1.13;99.99
64858;SHT30;51335;51.148;6.950;2024-01-15T02:43:40;1.13;99.99
64858;SHT30;51335;51.148;6.950;2024-01-15T02:44:10;1.12;99.99
64858;SHT30;51335;51.148;6.950;2024-01-15T02:44:40;1.13;99.99
64858;SHT30;51335;51.148;6.950;2024-01-15T02:45:11;1.15;99.99
64858;SHT30;51335;51.148;6.950;2024-01-15T02:45:41;1.13;99.99
64858;SHT30;51335;51.148;6.950;2024-01-15T02:46:11;1.11;99.99
64858;SHT30;51335;51.148;6.950;2024-01-15T02:46:41;1.11;99.99
64858;SHT30;51335;51.148;6.950;2024-01-15T02:47:12;1.11;99.99
64858;SHT30;51335;51.148;6.950;2024-01-15T02:47:42;1.11;99.99
64858;SHT30;51335;51.148;6.950;2024-01-15T02:48:12;1.09;99.99
64858;SHT30;51335;51.148;6.950;2024-01-15T02:48:42;1.13;99.99
64858;SHT30;51335;51.148;6.950;2024-01-15T02:49:13;1.12;99.99
64858;SHT30;51335;51.148;6.950;2024-01-15T02:49:43;1.12;99.99
64858;SHT30;51335;51.148;6.950;2024-01-15T02:50:13;1.09;99.99
64858;SHT30;51335;51.148;6.950;2024-01-15T02:50:44;1.15;99.99
64858;SHT30;51335;51.148;6.950;2024-01-15T02:51:14;1.13;99.99
64858;SHT30;51335;51.148;6.950;2024-01-15T02:51:44;1.12;99.99
64858;SHT30;51335;51.148;6.950;2024-01-15T02:52:15;1.11;99.99
64858;SHT30;51335;51.148;6.950;2024-01-15T02:52:45;1.09;99.99
64858;SHT30;51335;51.148;6.950;2024-01-15T02:53:15;1.11;99.99
64858;SHT30;51335;51.148;6.950;2024-01-15T02:53:45;1.15;99.99
64858;SHT30;51335;51.148;6.950;2024-01-15T02:54:16;1.15;99.99
64858;SHT30;51335;51.148;6.950;2024-01-15T02:54:46;1.13;99.99
64858;SHT30;51335;51.148;6.950;2024-01-15T02:55:16;1.15;99.99
64858;SHT30;51335;51.148;6.950;2024-01-15T02:55:46;1.15;99.99
64858;SHT30;51335;51.148;6.950;2024-01-15T02:56:17;1.12;99.99
64858;SHT30;51335;51.148;6.950;2024-01-15T02:56:47;1.11;99.99
64858;SHT30;51335;51.148;6.950;2024-01-15T02:57:17;1.11;99.99
64858;SHT30;51335;51.148;6.950;2024-01-15T02:57:47;1.11;99.99
64858;SHT30;51335;51.148;6.950;2024-01-15T02:58:18;1.12;99.99
64858;SHT30;51335;51.148;6.950;2024-01-15T02:58:48;1.09;99.99
64858;SHT30;51335;51.148;6.950;2024-01-15T02:59:18;1.11;99.99
64858;SHT30;51335;51.148;6.950;2024-01-15T02:59:49;1.11;99.99
64858;SHT30;51335;51.148;6.950;2024-01-15T03:00:19;1.15;99.99
64858;SHT30;51335;51.148;6.950;2024-01-15T03:00:49;1.18;99.99
64858;SHT30;51335;51.148;6.950;2024-01-15T03:01:20;1.19;99.99
64858;SHT30;51335;51.148;6.950;2024-01-15T03:01:50;1.19;99.99
64858;SHT30;51335;51.148;6.950;2024-01-15T03:02:20;1.19;99.99
64858;SHT30;51335;51.148;6.950;2024-01-15T03:02:51;1.19;99.99
64858;SHT30;51335;51.148;6.950;2024-01-15T03:03:21;1.19;99.99
64858;SHT30;51335;51.148;6.950;2024-01-15T03:03:51;1.23;99.99
64858;SHT30;51335;51.148;6.950;2024-01-15T03:04:22;1.22;99.99
64858;SHT30;51335;51.148;6.950;2024-01-15T03:04:52;1.20;99.99
64858;SHT30;51335;51.148;6.950;2024-01-15T03:05:22;1.22;99.99
64858;SHT30;51335;51.148;6.950;2024-01-15T03:05:52;1.25;99.99
64858;SHT30;51335;51.148;6.950;2024-01-15T03:06:23;1.20;99.99
64858;SHT30;51335;51.148;6.950;2024-01-15T03:06:53;1.19;99.99
64858;SHT30;51335;51.148;6.950;2024-01-15T03:07:23;1.22;99.99
64858;SHT30;51335;51.148;6.950;2024-01-15T03:07:54;1.23;99.99
64858;SHT30;51335;51.148;6.950;2024-01-15T03:08:24;1.28;99.99
64858;SHT30;51335;51.148;6.950;2024-01-15T03:08:54;1.22;99.99
64858;SHT30;51335;51.148;6.950;2024-01-15T03:09:24;1.25;99.99
64858;SHT30;51335;51.148;6.950;2024-01-15T03:09:55;1.26;99.99
64858;SHT30;51335;51.148;6.950;2024-01-15T03:10:25;1.26;99.99
64858;SHT30;51335;51.148;6.950;2024-01-15T03:10:55;1.20;99.99
64858;SHT30;51335;51.148;6.950;2024-01-15T03:11:25;1.20;99.99
64858;SHT30;51335;51.148;6.950;2024-01-15T03:11:56;1.23;99.99
64858;SHT30;51335;51.148;6.950;2024-01-15T03:12:26;1.23;99.99
64858;SHT30;51335;51.148;6.950;2024-01-15T03:12:57;1.23;99.99
64858;SHT30;51335;51.148;6.950;2024-01-15T03:13:27;1.28;99.99
64858;SHT30;51335;51.148;6.950;2024-01-15T03:13:58;1.28;99.99
64858;SHT30;51335;51.148;6.950;2024-01-15T03:14:29;1.26;99.99
64858;SHT30;51335;51.148;6.950;2024-01-15T03:14:59;1.25;99.99
64858;SHT30;51335;51.148;6.950;2024-01-15T03:15:29;1.19;99.99